Time;durP1;ratioP1;P1;durP2;ratioP2;P2;SDS_P1;SDS_P2;PMS_P1;PMS_P2;Temp;Humidity;BMP_temperature;BMP_pressure;BME280_temperature;BME280_humidity;BME280_pressure;Samples;Min_cycle;Max_cycle;Signal;HPM_P1;HPM_P2
2022/05/27 00:01:15;;;;;;;4.53;1.27;;;14.90;99.90;;;;;;5049272;28;20540;-68
2022/05/27 00:03:40;;;;;;;3.10;1.50;;;14.90;99.90;;;;;;5049792;28;20174;-68
2022/05/27 00:06:06;;;;;;;3.60;1.48;;;14.90;99.90;;;;;;5050943;28;20244;-68
2022/05/27 00:08:32;;;;;;;1.85;1.50;;;14.80;99.90;;;;;;5050082;28;20185;-68
2022/05/27 00:10:59;;;;;;;2.30;1.40;;;14.80;99.90;;;;;;5051235;28;20319;-68
2022/05/27 00:13:26;;;;;;;1.48;1.35;;;14.70;99.90;;;;;;5050599;28;20178;-68
2022/05/27 00:15:51;;;;;;;1.38;1.25;;;14.70;99.90;;;;;;5051002;28;20182;-68
2022/05/27 00:18:17;;;;;;;2.00;1.10;;;14.70;99.90;;;;;;5049790;28;20239;-68
2022/05/27 00:20:44;;;;;;;1.75;1.38;;;14.70;99.90;;;;;;5053696;28;20174;-68
2022/05/27 00:23:09;;;;;;;4.13;1.38;;;14.70;99.90;;;;;;5054551;28;20637;-68
2022/05/27 00:25:35;;;;;;;3.50;1.50;;;14.70;99.90;;;;;;5054717;28;20267;-68
2022/05/27 00:28:00;;;;;;;1.80;1.20;;;14.70;99.90;;;;;;5054814;28;20174;-68
2022/05/27 00:30:27;;;;;;;1.95;1.50;;;14.70;99.90;;;;;;5054494;28;20193;-68
2022/05/27 00:32:53;;;;;;;2.67;1.58;;;14.70;99.90;;;;;;5054412;28;20290;-68
2022/05/27 00:35:19;;;;;;;2.35;1.60;;;14.70;99.90;;;;;;5054502;28;20217;-68
2022/05/27 00:37:44;;;;;;;1.90;1.30;;;14.80;99.90;;;;;;5054130;28;20273;-68
2022/05/27 00:40:11;;;;;;;4.30;1.60;;;14.80;99.90;;;;;;5054098;28;20181;-68
2022/05/27 00:42:41;;;;;;;2.28;1.40;;;14.80;99.90;;;;;;5053987;28;20688;-68
2022/05/27 00:45:10;;;;;;;1.73;1.17;;;14.80;99.90;;;;;;5053947;28;20209;-67
2022/05/27 00:47:38;;;;;;;2.72;1.50;;;14.80;99.90;;;;;;5054421;28;20276;-68
2022/05/27 00:50:09;;;;;;;2.72;1.20;;;14.80;99.90;;;;;;5053148;28;20178;-68
2022/05/27 00:52:37;;;;;;;1.88;1.15;;;14.80;99.90;;;;;;5054509;28;20625;-69
2022/05/27 00:55:07;;;;;;;2.40;1.40;;;14.80;99.90;;;;;;5053773;28;20199;-68
2022/05/27 00:57:40;;;;;;;5.75;1.65;;;14.80;99.90;;;;;;5054226;28;20227;-68
2022/05/27 01:00:13;;;;;;;2.47;1.50;;;14.80;99.90;;;;;;5053791;28;20227;-68
2022/05/27 01:02:39;;;;;;;2.55;1.23;;;14.80;99.90;;;;;;5054150;28;20201;-68
2022/05/27 01:05:08;;;;;;;1.38;1.27;;;14.90;99.90;;;;;;5053960;28;20217;-68
2022/05/27 01:07:34;;;;;;;2.90;1.40;;;14.90;99.90;;;;;;5053912;28;20530;-68
2022/05/27 01:10:02;;;;;;;3.15;1.40;;;14.80;99.90;;;;;;5053860;28;20188;-68
2022/05/27 01:12:51;;;;;;;2.53;1.60;;;14.80;99.90;;;;;;5053503;28;20267;-68
2022/05/27 01:15:19;;;;;;;3.30;1.58;;;14.80;99.90;;;;;;5034252;28;20178;-68
2022/05/27 01:18:04;;;;;;;1.67;1.30;;;14.80;99.90;;;;;;5046483;28;20687;-68
2022/05/27 01:20:46;;;;;;;3.08;1.55;;;14.80;99.90;;;;;;5053979;28;20181;-68
2022/05/27 01:23:56;;;;;;;3.00;1.38;;;14.70;99.90;;;;;;5053417;28;20708;-68
2022/05/27 01:26:52;;;;;;;3.13;1.42;;;14.70;99.90;;;;;;5053418;28;20239;-68
2022/05/27 01:29:31;;;;;;;2.55;1.58;;;14.70;99.90;;;;;;5017099;28;20181;-68
2022/05/27 01:32:15;;;;;;;2.47;1.30;;;14.70;99.90;;;;;;5051579;28;20189;-68
2022/05/27 01:34:55;;;;;;;3.65;1.80;;;14.70;99.90;;;;;;5050666;28;20181;-68
2022/05/27 01:37:44;;;;;;;2.10;1.75;;;14.70;99.90;;;;;;5053816;28;20211;-68
2022/05/27 01:41:00;;;;;;;3.05;1.77;;;14.70;99.90;;;;;;5044425;28;20181;-69
2022/05/27 01:43:47;;;;;;;1.92;1.42;;;14.70;99.90;;;;;;5010932;28;20189;-68
2022/05/27 01:46:30;;;;;;;2.58;1.38;;;14.60;99.90;;;;;;4994272;28;20655;-69
2022/05/27 01:48:56;;;;;;;3.80;1.77;;;14.60;99.90;;;;;;5041530;28;20185;-68
2022/05/27 01:51:36;;;;;;;3.28;1.92;;;14.60;99.90;;;;;;5052714;28;20549;-69
2022/05/27 01:54:15;;;;;;;3.42;1.45;;;14.60;99.90;;;;;;5053162;28;20173;-68
2022/05/27 01:56:45;;;;;;;2.88;1.60;;;14.50;99.90;;;;;;5053219;28;20181;-69
2022/05/27 01:59:19;;;;;;;1.95;1.60;;;14.60;99.90;;;;;;5053021;28;20209;-68
2022/05/27 02:01:51;;;;;;;2.67;1.73;;;14.60;99.90;;;;;;5052894;28;20574;-69
2022/05/27 02:04:30;;;;;;;2.55;1.45;;;14.50;99.90;;;;;;5052238;28;20185;-68
2022/05/27 02:07:11;;;;;;;2.25;1.67;;;14.50;99.90;;;;;;5053341;28;20546;-68
2022/05/27 02:09:46;;;;;;;1.98;1.48;;;14.50;99.90;;;;;;5052541;28;20220;-69
2022/05/27 02:12:22;;;;;;;3.45;1.80;;;14.50;99.90;;;;;;5053027;28;20267;-68
2022/05/27 02:14:54;;;;;;;1.90;1.58;;;14.50;99.90;;;;;;5052761;28;20227;-68
2022/05/27 02:17:26;;;;;;;2.28;1.67;;;14.50;99.90;;;;;;5052233;28;20209;-69
2022/05/27 02:19:58;;;;;;;2.03;1.50;;;14.50;99.90;;;;;;5053176;28;20186;-69
2022/05/27 02:22:30;;;;;;;2.00;1.73;;;14.40;99.90;;;;;;5051074;28;20181;-69
2022/05/27 02:25:11;;;;;;;4.75;1.77;;;14.40;99.90;;;;;;5052619;28;20224;-67
2022/05/27 02:27:55;;;;;;;3.33;1.70;;;14.40;99.90;;;;;;5033567;28;20186;-69
2022/05/27 02:30:29;;;;;;;4.20;1.90;;;14.40;99.90;;;;;;5052122;28;20208;-69
2022/05/27 02:35:51;;;;;;;2.50;1.88;;;14.40;99.90;;;;;;5052719;28;20259;-69
2022/05/27 02:38:17;;;;;;;1.83;1.70;;;14.30;99.90;;;;;;5051876;28;20555;-70
2022/05/27 02:41:06;;;;;;;1.60;1.50;;;14.30;99.90;;;;;;5050495;28;20264;-69
2022/05/27 02:43:56;;;;;;;2.03;1.70;;;14.30;99.90;;;;;;5051351;28;20668;-69
2022/05/27 02:46:25;;;;;;;5.15;1.80;;;14.30;99.90;;;;;;5051682;28;20315;-69
2022/05/27 02:49:06;;;;;;;1.83;1.60;;;14.30;99.90;;;;;;5051793;28;20587;-69
2022/05/27 02:51:44;;;;;;;4.18;2.15;;;14.20;99.90;;;;;;5051642;28;20181;-69
2022/05/27 02:54:34;;;;;;;2.13;1.70;;;14.20;99.90;;;;;;5051615;28;20181;-69
2022/05/27 02:57:04;;;;;;;3.70;1.85;;;14.10;99.90;;;;;;5051194;28;20197;-69
2022/05/27 02:59:31;;;;;;;3.38;2.08;;;14.10;99.90;;;;;;5050942;28;20652;-69
2022/05/27 03:02:13;;;;;;;4.13;1.70;;;14.10;99.90;;;;;;5051598;28;20196;-69
2022/05/27 03:04:47;;;;;;;3.25;1.70;;;14.10;99.90;;;;;;5034118;28;20290;-69
2022/05/27 03:07:29;;;;;;;1.98;1.75;;;14.00;99.90;;;;;;5051759;28;20185;-69
2022/05/27 03:10:21;;;;;;;2.22;2.00;;;14.00;99.90;;;;;;5051439;28;20185;-68
2022/05/27 03:13:28;;;;;;;3.00;1.80;;;13.90;99.90;;;;;;5051128;28;20177;-69
2022/05/27 03:16:12;;;;;;;3.08;2.00;;;13.80;99.90;;;;;;5033197;28;20322;-69
2022/05/27 03:18:56;;;;;;;2.33;2.00;;;13.80;99.90;;;;;;5050546;28;20225;-69
2022/05/27 03:21:47;;;;;;;3.75;2.20;;;13.80;99.90;;;;;;5049816;28;20184;-69
2022/05/27 03:24:16;;;;;;;2.08;1.88;;;13.80;99.90;;;;;;5043073;28;20185;-68
2022/05/27 03:27:04;;;;;;;2.25;2.00;;;13.80;99.90;;;;;;5047702;28;20185;-69
2022/05/27 03:29:51;;;;;;;4.55;1.90;;;13.80;99.90;;;;;;5031791;28;20185;-69
2022/05/27 03:32:35;;;;;;;3.38;1.92;;;13.80;99.90;;;;;;5043897;28;20534;-69
2022/05/27 03:35:08;;;;;;;2.88;2.00;;;13.80;99.90;;;;;;5051111;28;20242;-69
2022/05/27 03:37:49;;;;;;;3.10;2.17;;;13.80;99.90;;;;;;5050835;28;20228;-69
2022/05/27 03:40:23;;;;;;;2.45;2.03;;;13.80;99.90;;;;;;5050611;28;20276;-69
2022/05/27 03:42:50;;;;;;;3.85;2.17;;;13.80;99.90;;;;;;5050808;28;20182;-69
2022/05/27 03:45:20;;;;;;;2.90;2.17;;;13.90;99.90;;;;;;5050048;28;20346;-69
2022/05/27 03:47:46;;;;;;;3.05;2.40;;;13.90;99.90;;;;;;5050674;28;20519;-69
2022/05/27 03:50:21;;;;;;;2.40;2.20;;;13.90;99.90;;;;;;5051539;28;20268;-68
2022/05/27 03:52:49;;;;;;;4.50;2.00;;;13.90;99.90;;;;;;5050640;28;20260;-69
2022/05/27 03:55:18;;;;;;;3.13;2.20;;;13.90;99.90;;;;;;5052622;28;20283;-69
2022/05/27 03:57:44;;;;;;;2.40;2.20;;;13.90;99.90;;;;;;5055130;28;20221;-69
2022/05/27 04:00:11;;;;;;;5.28;2.42;;;13.90;99.90;;;;;;5054493;28;20231;-68
2022/05/27 04:02:37;;;;;;;2.25;1.83;;;14.00;99.90;;;;;;5054947;28;20195;-68
2022/05/27 04:05:04;;;;;;;3.55;2.08;;;14.00;99.90;;;;;;5054994;28;20604;-68
2022/05/27 04:07:30;;;;;;;3.33;2.28;;;14.00;99.90;;;;;;5054628;28;20652;-68
2022/05/27 04:09:55;;;;;;;2.80;2.40;;;14.10;99.90;;;;;;5054872;28;20192;-67
2022/05/27 04:12:21;;;;;;;6.00;2.47;;;14.10;99.90;;;;;;5054645;28;20664;-68
2022/05/27 04:14:51;;;;;;;3.42;2.13;;;14.10;99.90;;;;;;5052572;28;20209;-68
2022/05/27 04:17:30;;;;;;;3.60;2.45;;;14.20;99.90;;;;;;5054347;28;20232;-68
2022/05/27 04:19:57;;;;;;;3.17;2.17;;;14.20;99.90;;;;;;5054475;28;20242;-68
2022/05/27 04:22:23;;;;;;;3.10;2.10;;;14.30;99.90;;;;;;5054079;28;20196;-69
2022/05/27 04:24:48;;;;;;;6.93;2.17;;;14.30;99.90;;;;;;5054914;28;20209;-68
2022/05/27 04:27:17;;;;;;;3.25;2.20;;;14.30;99.90;;;;;;5054593;28;20235;-68
2022/05/27 04:29:45;;;;;;;3.17;2.60;;;14.30;99.90;;;;;;5054734;28;20251;-69
2022/05/27 04:32:11;;;;;;;5.82;2.60;;;14.30;99.90;;;;;;5053595;28;20174;-66
2022/05/27 04:34:38;;;;;;;4.78;2.55;;;14.40;99.90;;;;;;5053372;28;20178;-68
2022/05/27 04:37:04;;;;;;;4.45;2.50;;;14.30;99.90;;;;;;5054137;28;20190;-69
2022/05/27 04:39:30;;;;;;;6.32;2.95;;;14.30;99.90;;;;;;5054579;28;20174;-68
2022/05/27 04:41:55;;;;;;;2.67;2.33;;;14.30;99.90;;;;;;5054096;28;20189;-68
2022/05/27 04:44:21;;;;;;;4.88;2.83;;;14.30;99.90;;;;;;5054252;28;20181;-68
2022/05/27 04:46:46;;;;;;;3.90;2.42;;;14.30;99.90;;;;;;5053961;28;20181;-67
2022/05/27 04:49:50;;;;;;;3.90;2.60;;;14.40;99.90;;;;;;5054656;28;20177;-68
2022/05/27 04:51:59;;;;;;;3.20;2.63;;;14.40;99.90;;;;;;5054030;28;20651;-68
2022/05/27 04:54:24;;;;;;;4.25;3.35;;;14.50;99.90;;;;;;5054340;28;20283;-68
2022/05/27 04:56:50;;;;;;;5.97;3.60;;;14.50;99.90;;;;;;5053801;28;20547;-69
2022/05/27 04:59:16;;;;;;;4.57;3.90;;;14.50;99.90;;;;;;5052933;28;20177;-67
2022/05/27 05:01:41;;;;;;;4.30;3.85;;;14.50;99.90;;;;;;5053860;28;20212;-68
2022/05/27 05:04:07;;;;;;;7.22;4.00;;;14.60;99.90;;;;;;5052936;28;20578;-68
2022/05/27 05:06:33;;;;;;;7.32;4.00;;;14.60;99.90;;;;;;5052993;28;20186;-68
2022/05/27 05:08:58;;;;;;;6.68;3.72;;;14.50;99.90;;;;;;5053445;28;20264;-68
2022/05/27 05:11:24;;;;;;;5.47;3.45;;;14.60;99.90;;;;;;5054277;28;20213;-68
2022/05/27 05:13:49;;;;;;;6.18;3.67;;;14.60;99.90;;;;;;5053639;28;20623;-68
2022/05/27 05:16:15;;;;;;;6.47;3.53;;;14.60;99.90;;;;;;5053330;28;20386;-68
2022/05/27 05:18:41;;;;;;;8.30;3.78;;;14.60;99.90;;;;;;5053702;28;20217;-68
2022/05/27 05:21:06;;;;;;;6.03;3.80;;;14.60;99.90;;;;;;5053801;28;20189;-69
2022/05/27 05:23:32;;;;;;;4.88;3.42;;;14.70;99.90;;;;;;5053220;28;20189;-68
2022/05/27 05:25:57;;;;;;;4.82;3.30;;;14.70;99.90;;;;;;5053064;28;20588;-68
2022/05/27 05:28:23;;;;;;;4.20;3.25;;;14.70;99.90;;;;;;5053623;28;20258;-69
2022/05/27 05:30:48;;;;;;;4.53;3.47;;;14.70;99.90;;;;;;5052752;28;20177;-69
2022/05/27 05:33:14;;;;;;;7.50;3.70;;;14.70;99.90;;;;;;5053154;28;20178;-69
2022/05/27 05:35:40;;;;;;;4.07;3.17;;;14.70;99.90;;;;;;5053260;28;20235;-68
2022/05/27 05:38:06;;;;;;;3.70;2.95;;;14.80;99.90;;;;;;5053260;28;20640;-68
2022/05/27 05:40:32;;;;;;;4.68;3.50;;;14.80;99.90;;;;;;5053069;28;20217;-68
2022/05/27 05:43:00;;;;;;;5.45;3.55;;;14.80;99.90;;;;;;5052868;28;20250;-68
2022/05/27 05:45:25;;;;;;;4.47;3.33;;;14.80;99.90;;;;;;5052942;28;20300;-68
2022/05/27 05:47:51;;;;;;;5.40;3.60;;;14.80;99.90;;;;;;5053185;28;20265;-68
2022/05/27 05:50:17;;;;;;;4.85;3.78;;;14.80;99.90;;;;;;5053085;28;20185;-69
2022/05/27 05:52:43;;;;;;;4.90;3.50;;;14.80;99.90;;;;;;5052523;28;20173;-69
2022/05/27 05:55:12;;;;;;;4.43;3.47;;;14.80;99.90;;;;;;5052999;28;20186;-69
2022/05/27 05:57:42;;;;;;;5.13;3.33;;;14.80;99.90;;;;;;5052748;28;20640;-68
2022/05/27 06:00:15;;;;;;;6.95;3.83;;;14.80;99.90;;;;;;5052522;28;20200;-68
2022/05/27 06:02:40;;;;;;;7.82;3.63;;;14.80;99.90;;;;;;5052549;28;20182;-68
2022/05/27 06:05:07;;;;;;;6.22;3.90;;;14.80;99.90;;;;;;5052664;28;20575;-69
2022/05/27 06:07:33;;;;;;;4.43;3.38;;;14.80;99.90;;;;;;5053070;28;20267;-69
2022/05/27 06:09:59;;;;;;;5.00;3.78;;;14.80;99.90;;;;;;5052552;28;20178;-67
2022/05/27 06:12:26;;;;;;;6.07;3.85;;;14.80;99.90;;;;;;5052406;28;20213;-68
2022/05/27 06:14:53;;;;;;;5.95;3.53;;;14.80;99.90;;;;;;5052191;28;20209;-69
2022/05/27 06:17:20;;;;;;;5.35;3.47;;;14.80;99.90;;;;;;5044917;28;20229;-69
2022/05/27 06:19:46;;;;;;;4.85;3.53;;;14.90;99.90;;;;;;5052831;28;20181;-68
2022/05/27 06:22:11;;;;;;;5.72;3.42;;;14.90;99.90;;;;;;5051978;28;20169;-68
2022/05/27 06:24:37;;;;;;;6.80;3.72;;;14.90;99.90;;;;;;5051754;28;20266;-68
2022/05/27 06:27:06;;;;;;;6.38;3.38;;;15.00;99.90;;;;;;5051991;28;20189;-67
2022/05/27 06:35:00;;;;;;;7.97;3.53;;;15.10;99.90;;;;;;5052071;28;20192;-68
2022/05/27 06:37:25;;;;;;;6.78;3.58;;;15.10;99.90;;;;;;5051964;28;20174;-69
2022/05/27 06:39:52;;;;;;;4.85;3.05;;;15.10;99.90;;;;;;5052771;28;20184;-68
2022/05/27 06:42:17;;;;;;;4.93;3.63;;;15.20;99.90;;;;;;5051776;28;20178;-68
2022/05/27 06:44:43;;;;;;;4.72;3.28;;;15.20;99.90;;;;;;5052030;28;20710;-68
2022/05/27 06:47:09;;;;;;;4.50;3.20;;;15.20;99.90;;;;;;5051870;28;20268;-68
2022/05/27 06:49:37;;;;;;;5.75;3.75;;;15.20;99.90;;;;;;5051797;28;20186;-68
2022/05/27 06:52:04;;;;;;;5.75;3.45;;;15.20;99.90;;;;;;5052489;28;20208;-68
2022/05/27 06:54:29;;;;;;;6.43;3.55;;;15.30;99.90;;;;;;5051556;28;20192;-68
2022/05/27 06:56:55;;;;;;;6.05;3.80;;;15.30;99.90;;;;;;5051324;28;20170;-68
2022/05/27 06:59:22;;;;;;;4.75;3.05;;;15.30;99.90;;;;;;5051841;28;20181;-68
2022/05/27 07:01:48;;;;;;;4.97;3.28;;;15.40;99.90;;;;;;5051599;28;20206;-68
2022/05/27 07:04:14;;;;;;;4.65;3.10;;;15.40;99.90;;;;;;5051016;28;20188;-69
2022/05/27 07:06:43;;;;;;;5.78;3.20;;;15.40;99.90;;;;;;5051126;28;20193;-68
2022/05/27 07:09:19;;;;;;;5.60;3.30;;;15.40;99.90;;;;;;5052067;28;20234;-67
2022/05/27 07:11:47;;;;;;;3.85;2.65;;;15.40;99.90;;;;;;5051291;28;20189;-67
2022/05/27 07:14:14;;;;;;;3.90;2.67;;;15.40;99.90;;;;;;5051416;28;20173;-67
2022/05/27 07:16:41;;;;;;;4.55;3.20;;;15.50;99.90;;;;;;5050920;28;20185;-66
2022/05/27 07:19:06;;;;;;;5.72;2.72;;;15.50;99.90;;;;;;5051481;28;20181;-68
2022/05/27 07:21:40;;;;;;;5.18;2.75;;;15.50;99.90;;;;;;5051661;28;20191;-68
2022/05/27 07:24:09;;;;;;;6.85;3.20;;;15.60;99.90;;;;;;5051432;28;20186;-68
2022/05/27 07:26:35;;;;;;;4.20;2.80;;;15.60;99.90;;;;;;5050436;28;20299;-68
2022/05/27 07:29:01;;;;;;;5.03;2.70;;;15.70;99.90;;;;;;5051148;28;20181;-68
2022/05/27 07:31:27;;;;;;;6.03;3.50;;;15.80;99.90;;;;;;5052406;28;20181;-68
2022/05/27 07:33:52;;;;;;;3.88;2.88;;;15.90;99.90;;;;;;5051863;28;20235;-66
2022/05/27 07:36:19;;;;;;;4.68;2.90;;;16.00;99.90;;;;;;5053147;28;20174;-68
2022/05/27 07:38:44;;;;;;;4.82;3.25;;;16.10;99.90;;;;;;5041357;28;20189;-66
2022/05/27 07:41:11;;;;;;;4.35;2.97;;;16.20;99.90;;;;;;5051047;28;20181;-69
2022/05/27 07:43:38;;;;;;;6.93;2.80;;;16.20;99.90;;;;;;5050530;28;20206;-67
2022/05/27 07:46:04;;;;;;;3.90;2.85;;;16.20;99.90;;;;;;5049753;28;20201;-75
2022/05/27 07:48:29;;;;;;;3.10;2.50;;;16.20;99.90;;;;;;5051478;28;20181;-69
2022/05/27 07:50:55;;;;;;;2.60;2.40;;;16.20;99.90;;;;;;5050845;28;20185;-71
2022/05/27 07:53:22;;;;;;;4.88;2.80;;;16.20;99.90;;;;;;5050876;28;20173;-74
2022/05/27 07:55:47;;;;;;;4.93;2.55;;;16.30;99.90;;;;;;5051054;28;20186;-73
2022/05/27 07:58:13;;;;;;;3.97;2.78;;;16.40;99.90;;;;;;5051177;28;20185;-72
2022/05/27 08:00:39;;;;;;;5.55;3.22;;;16.40;99.90;;;;;;5050302;28;20545;-69
2022/05/27 08:03:05;;;;;;;4.95;3.22;;;16.40;99.90;;;;;;5051169;28;20632;-71
2022/05/27 08:05:32;;;;;;;3.03;2.38;;;16.30;99.90;;;;;;5050353;28;20237;-72
2022/05/27 08:07:59;;;;;;;2.80;2.53;;;16.30;99.90;;;;;;5050746;28;20174;-72
2022/05/27 08:10:28;;;;;;;5.35;2.33;;;16.40;99.90;;;;;;5051158;28;20186;-73
2022/05/27 08:12:54;;;;;;;3.28;2.30;;;16.60;99.90;;;;;;5050923;28;20258;-70
2022/05/27 08:15:20;;;;;;;4.95;2.50;;;16.70;99.90;;;;;;5050190;28;20629;-71
2022/05/27 08:17:46;;;;;;;5.07;2.75;;;16.70;99.90;;;;;;5051040;28;20593;-72
2022/05/27 08:20:16;;;;;;;2.85;2.50;;;16.70;99.90;;;;;;5051167;28;20173;-73
2022/05/27 08:22:42;;;;;;;3.90;2.30;;;16.70;99.90;;;;;;5051023;28;20616;-72
2022/05/27 08:25:08;;;;;;;3.17;2.45;;;16.80;99.90;;;;;;5051085;28;20207;-71
2022/05/27 08:27:33;;;;;;;3.60;2.17;;;17.00;99.90;;;;;;5051005;28;20252;-68
2022/05/27 08:29:59;;;;;;;2.55;2.35;;;17.10;99.90;;;;;;5050631;28;20178;-69
2022/05/27 08:32:25;;;;;;;2.25;1.98;;;17.30;99.90;;;;;;5050948;28;20192;-69
2022/05/27 08:40:45;;;;;;;5.28;2.20;;;17.20;99.90;;;;;;5050682;28;20534;-70
2022/05/27 08:43:13;;;;;;;4.38;2.33;;;17.10;99.90;;;;;;5054805;28;20220;-69
2022/05/27 08:45:57;;;;;;;3.50;2.60;;;17.00;99.90;;;;;;5053983;28;20225;-70
2022/05/27 08:48:26;;;;;;;3.15;2.70;;;17.00;99.90;;;;;;5034941;28;20200;-70
2022/05/27 08:50:58;;;;;;;55.03;33.28;;;17.00;99.90;;;;;;5045285;28;20192;-71
2022/05/27 08:53:41;;;;;;;9.55;6.68;;;17.10;99.90;;;;;;5054126;28;20185;-70
2022/05/27 09:01:51;;;;;;;79.95;44.28;;;17.80;99.90;;;;;;5049546;28;20176;-73
2022/05/27 09:04:35;;;;;;;16.70;10.75;;;17.80;99.90;;;;;;5053570;28;20200;-73
2022/05/27 09:07:04;;;;;;;8.93;6.68;;;17.90;99.90;;;;;;5041843;28;20181;-72
2022/05/27 09:09:31;;;;;;;26.30;13.10;;;18.00;99.90;;;;;;5053283;28;20188;-70
2022/05/27 09:12:25;;;;;;;12.48;8.77;;;17.90;99.90;;;;;;5053660;28;20186;-71
2022/05/27 09:15:15;;;;;;;19.45;11.43;;;18.20;99.90;;;;;;5053628;28;20185;-71
2022/05/27 09:17:42;;;;;;;6.35;4.22;;;18.40;99.90;;;;;;5053238;28;20225;-70
2022/05/27 09:20:27;;;;;;;11.90;6.90;;;18.50;99.90;;;;;;5054087;28;20184;-70
2022/05/27 09:23:14;;;;;;;7.28;4.93;;;18.40;99.90;;;;;;5062471;28;20519;-71
2022/05/27 09:25:51;;;;;;;9.45;4.25;;;18.40;99.90;;;;;;5053773;28;20318;-70
2022/05/27 09:28:31;;;;;;;9.63;6.15;;;18.40;99.90;;;;;;5052685;28;20518;-70
2022/05/27 09:30:58;;;;;;;6.22;4.63;;;18.40;99.90;;;;;;5052890;28;20242;-69
2022/05/27 09:33:26;;;;;;;4.20;3.25;;;18.50;99.90;;;;;;5053557;28;20197;-70
2022/05/27 09:36:12;;;;;;;7.40;2.65;;;18.70;99.90;;;;;;5059050;28;20177;-70
2022/05/27 09:38:47;;;;;;;6.53;5.18;;;18.50;99.90;;;;;;5058210;28;20185;-70
2022/05/27 09:41:38;;;;;;;4.70;3.50;;;18.30;99.90;;;;;;5052812;28;20181;-71
2022/05/27 09:44:30;;;;;;;3.67;2.20;;;18.40;99.90;;;;;;5052422;28;20185;-70
2022/05/27 09:46:56;;;;;;;8.57;2.55;;;18.50;99.90;;;;;;5053179;28;20707;-70
2022/05/27 09:49:21;;;;;;;6.30;3.30;;;18.80;99.90;;;;;;5053416;28;20189;-71
2022/05/27 09:51:47;;;;;;;2.50;1.75;;;19.30;99.90;;;;;;5052136;28;20208;-70
2022/05/27 09:54:13;;;;;;;1.83;1.73;;;19.60;99.90;;;;;;5052973;28;20173;-71
2022/05/27 09:56:43;;;;;;;3.55;2.28;;;19.90;99.90;;;;;;5052666;28;20271;-71
2022/05/27 09:59:23;;;;;;;4.38;2.80;;;20.00;99.30;;;;;;5052131;28;20180;-71
2022/05/27 10:01:49;;;;;;;3.78;2.63;;;20.10;99.30;;;;;;5042050;28;20200;-68
2022/05/27 10:04:19;;;;;;;3.08;2.35;;;20.00;98.50;;;;;;5053026;28;20278;-71
2022/05/27 10:06:46;;;;;;;13.35;8.13;;;19.70;98.70;;;;;;5053002;28;20588;-71
2022/05/27 10:09:28;;;;;;;21.83;12.85;;;19.60;99.20;;;;;;5052724;28;20189;-70
2022/05/27 10:11:55;;;;;;;2.03;1.83;;;19.50;99.50;;;;;;5052446;28;20177;-71
2022/05/27 10:14:32;;;;;;;4.47;3.30;;;19.60;99.10;;;;;;5052910;28;20181;-71
2022/05/27 10:17:35;;;;;;;9.68;6.30;;;19.70;98.30;;;;;;5052247;28;20277;-71
2022/05/27 10:20:34;;;;;;;3.08;2.42;;;20.00;98.00;;;;;;5052526;28;20174;-71
2022/05/27 10:23:07;;;;;;;4.47;2.85;;;20.10;97.10;;;;;;5029093;28;20220;-71
2022/05/27 10:25:38;;;;;;;1.55;1.45;;;20.40;97.50;;;;;;5052097;28;20679;-70
2022/05/27 10:28:06;;;;;;;1.58;1.48;;;20.80;96.00;;;;;;5041074;28;20177;-70
2022/05/27 10:30:38;;;;;;;3.60;1.60;;;20.70;95.90;;;;;;5052531;28;20267;-69
2022/05/27 10:33:22;;;;;;;1.95;1.45;;;20.80;95.80;;;;;;5052266;28;20205;-70
2022/05/27 10:35:52;;;;;;;3.30;2.53;;;20.70;94.50;;;;;;5075928;28;20161;-70
2022/05/27 10:38:25;;;;;;;50.10;28.60;;;20.70;95.00;;;;;;5057430;28;20185;-71
2022/05/27 10:41:06;;;;;;;6.80;3.85;;;20.80;94.80;;;;;;5053759;28;20264;-71
2022/05/27 10:44:07;;;;;;;5.13;1.85;;;20.80;94.40;;;;;;5052660;28;20185;-67
2022/05/27 10:46:57;;;;;;;3.78;3.03;;;20.60;94.70;;;;;;5053812;28;20301;-65
2022/05/27 10:49:47;;;;;;;5.45;3.45;;;20.50;94.90;;;;;;5052172;28;20212;-69
2022/05/27 10:52:29;;;;;;;2.85;1.60;;;20.50;95.70;;;;;;5052855;28;20181;-73
2022/05/27 10:55:16;;;;;;;2.10;1.90;;;20.50;95.70;;;;;;5052299;28;20181;-71
2022/05/27 11:03:46;;;;;;;22.30;11.55;;;20.60;96.20;;;;;;5052152;28;20196;-71
2022/05/27 11:06:41;;;;;;;13.65;8.75;;;20.90;95.90;;;;;;5051361;28;20213;-70
2022/05/27 11:09:30;;;;;;;7.40;5.30;;;21.00;95.20;;;;;;5051252;28;20169;-76
2022/05/27 11:12:06;;;;;;;7.97;5.60;;;20.80;94.80;;;;;;5048139;28;20193;-67
2022/05/27 11:17:56;;;;;;;3.92;2.05;;;20.70;95.30;;;;;;5050668;28;20274;-74
2022/05/27 11:21:10;;;;;;;1.80;1.50;;;20.70;94.40;;;;;;5050833;28;20174;-74
2022/05/27 11:23:35;;;;;;;1.77;1.60;;;20.50;94.80;;;;;;5032807;28;20204;-71
2022/05/27 11:26:01;;;;;;;1.58;1.40;;;20.60;94.70;;;;;;5051598;28;20566;-74
2022/05/27 11:28:44;;;;;;;7.45;4.63;;;20.70;94.50;;;;;;5054804;28;20258;-70
2022/05/27 11:31:24;;;;;;;9.43;5.28;;;20.80;94.30;;;;;;5050344;28;20181;-75
2022/05/27 11:34:16;;;;;;;10.38;4.03;;;20.90;94.30;;;;;;5050181;28;20648;-76
2022/05/27 11:37:19;;;;;;;7.32;2.85;;;20.80;93.90;;;;;;5047833;28;20185;-70
2022/05/27 11:40:03;;;;;;;2.63;1.30;;;20.70;93.90;;;;;;5048734;28;20214;-71
2022/05/27 11:43:12;;;;;;;5.05;1.70;;;20.60;94.00;;;;;;5049594;28;20201;-68
2022/05/27 11:45:43;;;;;;;5.05;3.20;;;20.60;94.40;;;;;;5050968;28;20275;-67
2022/05/27 11:48:21;;;;;;;26.70;16.88;;;20.80;94.50;;;;;;5050896;28;20188;-67
2022/05/27 11:51:07;;;;;;;21.80;14.38;;;21.00;94.10;;;;;;5050403;28;20659;-68
2022/05/27 11:53:45;;;;;;;5.40;2.70;;;21.30;94.00;;;;;;5046784;28;20227;-68
2022/05/27 11:56:25;;;;;;;4.22;2.42;;;21.50;93.00;;;;;;5049686;28;20173;-68
2022/05/27 11:59:04;;;;;;;2.67;1.92;;;21.40;92.40;;;;;;5050164;28;20256;-68
2022/05/27 12:01:35;;;;;;;2.38;1.60;;;21.30;92.50;;;;;;5048953;28;20200;-68
2022/05/27 12:04:09;;;;;;;1.45;1.35;;;21.00;92.50;;;;;;5051233;28;20571;-68
2022/05/27 12:06:46;;;;;;;2.80;1.42;;;21.00;92.90;;;;;;5050758;28;20213;-67
2022/05/27 12:09:40;;;;;;;4.40;1.70;;;20.90;92.80;;;;;;5050183;28;20515;-67
2022/05/27 12:12:11;;;;;;;3.08;2.00;;;20.60;92.60;;;;;;5050937;28;20192;-67
2022/05/27 12:15:09;;;;;;;10.35;1.85;;;20.40;93.40;;;;;;5046555;28;20274;-67
2022/05/27 12:17:46;;;;;;;2.42;1.70;;;20.40;94.00;;;;;;5048082;28;20221;-67
2022/05/27 12:20:17;;;;;;;5.65;1.48;;;20.40;94.20;;;;;;5053346;28;20699;-67
2022/05/27 12:22:47;;;;;;;12.88;5.05;;;20.60;94.00;;;;;;5054857;28;20185;-67
2022/05/27 12:25:19;;;;;;;28.85;18.25;;;20.60;94.20;;;;;;5053891;28;20296;-67
2022/05/27 12:27:46;;;;;;;7.05;5.20;;;20.50;94.00;;;;;;5055280;28;20323;-67
2022/05/27 12:30:14;;;;;;;23.65;17.35;;;20.50;94.30;;;;;;5054685;28;20174;-67
2022/05/27 12:32:43;;;;;;;12.27;8.38;;;20.40;94.40;;;;;;5054185;28;20576;-67
2022/05/27 12:35:32;;;;;;;12.27;6.63;;;20.30;94.80;;;;;;5054738;28;20180;-67
2022/05/27 12:38:09;;;;;;;23.50;13.55;;;20.10;95.10;;;;;;5054475;28;20196;-66
2022/05/27 12:40:58;;;;;;;17.67;7.85;;;20.10;95.60;;;;;;5054772;28;20177;-67
2022/05/27 12:43:39;;;;;;;6.70;2.83;;;20.20;95.60;;;;;;5054419;28;20182;-67
2022/05/27 12:46:04;;;;;;;4.07;1.75;;;20.00;95.50;;;;;;5053451;28;20238;-67
2022/05/27 12:48:40;;;;;;;4.70;2.00;;;20.00;95.50;;;;;;5053769;28;20205;-67
2022/05/27 12:51:31;;;;;;;11.18;2.53;;;20.00;95.80;;;;;;5054168;28;20260;-67
2022/05/27 12:53:58;;;;;;;11.30;1.85;;;20.00;95.90;;;;;;5046604;28;20173;-66
2022/05/27 13:02:23;;;;;;;19.52;5.43;;;20.00;96.60;;;;;;5051552;28;20272;-69
2022/05/27 13:04:57;;;;;;;6.53;3.13;;;19.80;96.20;;;;;;5053661;28;20288;-68
2022/05/27 13:07:37;;;;;;;4.85;1.95;;;19.70;96.10;;;;;;5053489;28;20193;-69
2022/05/27 13:10:18;;;;;;;3.40;2.10;;;19.30;96.30;;;;;;5053536;28;20708;-69
2022/05/27 13:12:47;;;;;;;3.13;1.90;;;19.20;96.90;;;;;;5053339;28;20178;-69
2022/05/27 13:15:24;;;;;;;3.88;1.75;;;19.20;97.10;;;;;;5053864;28;20578;-69
2022/05/27 13:18:25;;;;;;;21.30;2.83;;;19.10;97.30;;;;;;5052421;28;20220;-69
2022/05/27 13:21:35;;;;;;;8.45;2.20;;;18.90;97.40;;;;;;5052882;28;20263;-69
2022/05/27 13:24:04;;;;;;;6.57;1.92;;;18.80;97.50;;;;;;5053734;28;20640;-68
2022/05/27 13:26:57;;;;;;;9.77;2.03;;;18.70;97.90;;;;;;5051736;28;20296;-67
2022/05/27 13:29:26;;;;;;;4.57;2.25;;;18.60;98.20;;;;;;5049154;28;20261;-69
2022/05/27 13:31:58;;;;;;;7.18;2.88;;;18.40;98.40;;;;;;5052760;28;20662;-68
2022/05/27 13:34:34;;;;;;;44.38;8.50;;;18.30;99.00;;;;;;5053753;28;20186;-68
2022/05/27 13:37:04;;;;;;;26.17;4.28;;;18.30;99.00;;;;;;5058828;28;20713;-67
2022/05/27 13:39:43;;;;;;;20.48;4.07;;;18.30;99.10;;;;;;5053460;28;20204;-68
2022/05/27 13:42:11;;;;;;;3.38;2.85;;;18.20;99.20;;;;;;5052437;28;20174;-68
2022/05/27 13:44:40;;;;;;;16.38;6.13;;;18.40;99.50;;;;;;5051894;28;20181;-68
2022/05/27 13:47:10;;;;;;;17.98;6.03;;;18.30;99.20;;;;;;5052854;28;20205;-68
2022/05/27 13:49:42;;;;;;;6.38;3.33;;;18.30;99.40;;;;;;5053012;28;20246;-68
2022/05/27 13:52:23;;;;;;;6.75;3.88;;;18.30;99.60;;;;;;5051678;28;20716;-68